createdAt,value
2022-10-14T00:04:26.091Z,92.90
2022-10-14T00:09:29.327Z,92.93
2022-10-14T00:14:32.574Z,92.84
2022-10-14T00:19:36.676Z,92.81
2022-10-14T00:24:40.270Z,92.95
2022-10-14T00:29:43.549Z,92.92
2022-10-14T00:34:46.804Z,92.97
2022-10-14T00:39:53.480Z,92.84
2022-10-14T00:45:14.311Z,92.75
2022-10-14T00:50:20.082Z,92.73
2022-10-14T00:55:23.627Z,92.80
2022-10-14T01:00:27.213Z,92.74
2022-10-14T01:05:34.104Z,92.74
2022-10-14T01:10:43.505Z,92.69
2022-10-14T01:16:09.900Z,92.65
2022-10-14T01:21:21.253Z,92.66
2022-10-14T01:26:56.341Z,92.78
2022-10-14T01:32:07.568Z,92.94
2022-10-14T01:37:15.846Z,92.33
2022-10-14T01:42:23.935Z,89.39
2022-10-14T01:47:30.725Z,90.46
2022-10-14T01:52:46.708Z,91.99
2022-10-14T01:57:52.119Z,91.00
2022-10-14T02:02:55.903Z,90.34
2022-10-14T02:08:08.811Z,90.38
2022-10-14T02:13:47.341Z,89.34
2022-10-14T02:19:09.937Z,90.24
2022-10-14T02:24:13.087Z,90.59
2022-10-14T02:29:19.783Z,90.58
2022-10-14T02:34:24.614Z,89.00
2022-10-14T02:39:35.915Z,89.13
2022-10-14T02:44:53.453Z,89.89
2022-10-14T02:49:56.854Z,90.42
2022-10-14T02:55:00.710Z,90.37
2022-10-14T03:00:06.187Z,90.46
2022-10-14T03:05:10.363Z,89.91
2022-10-14T03:10:13.742Z,90.45
2022-10-14T03:15:17.160Z,90.74
2022-10-14T03:20:20.615Z,91.06
2022-10-14T03:25:28.329Z,91.46
2022-10-14T03:30:45.418Z,92.21
2022-10-14T03:35:52.713Z,92.20
2022-10-14T03:41:00.748Z,91.45
2022-10-14T03:46:04.992Z,91.52
2022-10-14T03:51:09.069Z,91.83
2022-10-14T03:56:12.824Z,92.05
2022-10-14T04:01:17.472Z,92.48
2022-10-14T04:06:39.373Z,91.86
2022-10-14T04:11:43.168Z,91.56
2022-10-14T04:16:51.863Z,91.55
2022-10-14T04:21:55.979Z,91.73
2022-10-14T04:27:03.996Z,92.14
2022-10-14T04:32:30.229Z,92.03
2022-10-14T04:37:33.722Z,89.77
2022-10-14T04:42:42.736Z,88.54
2022-10-14T04:47:54.058Z,90.20
2022-10-14T04:53:02.124Z,90.45
2022-10-14T04:58:05.418Z,90.83
2022-10-14T05:03:13.661Z,91.26
2022-10-14T05:08:23.415Z,91.99
2022-10-14T05:13:31.071Z,91.42
2022-10-14T05:18:40.492Z,91.01
2022-10-14T05:23:51.373Z,91.05
2022-10-14T05:28:54.970Z,91.01
2022-10-14T05:33:58.598Z,91.22
2022-10-14T05:39:02.855Z,90.87
2022-10-14T05:44:11.753Z,90.76
2022-10-14T05:49:15.314Z,91.30
2022-10-14T05:54:19.353Z,91.24
2022-10-14T05:59:24.039Z,91.30
2022-10-14T06:04:29.163Z,91.56
2022-10-14T06:09:39.990Z,91.50
2022-10-14T06:14:49.653Z,91.82
2022-10-14T06:20:07.552Z,91.87
2022-10-14T06:25:11.120Z,92.21
2022-10-14T06:30:14.829Z,92.03
2022-10-14T06:35:21.365Z,91.67
2022-10-14T06:40:24.800Z,91.82
2022-10-14T06:45:28.047Z,92.23
2022-10-14T06:50:31.334Z,92.28
2022-10-14T06:55:35.107Z,92.22
2022-10-14T07:00:43.239Z,92.12
2022-10-14T07:05:51.950Z,92.04
2022-10-14T07:10:58.145Z,91.95
2022-10-14T07:16:07.505Z,91.88
2022-10-14T07:21:10.876Z,91.51
2022-10-14T07:26:17.245Z,90.69
2022-10-14T07:31:26.590Z,90.64
2022-10-14T07:36:32.724Z,88.89
2022-10-14T07:41:38.223Z,88.99
2022-10-14T07:46:44.864Z,89.07
2022-10-14T07:51:49.356Z,88.69
2022-10-14T07:56:53.886Z,88.34
2022-10-14T08:01:57.611Z,86.86
2022-10-14T08:07:01.581Z,85.49
2022-10-14T08:12:06.260Z,84.52
2022-10-14T08:17:10.209Z,84.31
2022-10-14T08:22:16.932Z,83.76
2022-10-14T08:27:20.151Z,82.93
2022-10-14T08:32:24.857Z,81.96
2022-10-14T08:37:29.687Z,82.33
2022-10-14T08:42:46.340Z,81.04
2022-10-14T08:47:54.070Z,78.75
2022-10-14T08:53:09.974Z,79.64
2022-10-14T08:58:19.724Z,77.06
2022-10-14T09:03:35.231Z,78.15
2022-10-14T09:08:45.160Z,79.09
2022-10-14T09:13:56.710Z,78.03
2022-10-14T09:19:02.794Z,75.77
2022-10-14T09:24:21.653Z,75.79
2022-10-14T09:29:28.987Z,76.84
2022-10-14T09:34:38.875Z,76.20
2022-10-14T09:39:46.007Z,75.65
2022-10-14T09:45:13.563Z,75.26
2022-10-14T09:50:52.203Z,73.92
2022-10-14T09:55:58.831Z,72.62
2022-10-14T10:01:06.368Z,69.49
2022-10-14T10:06:15.216Z,71.35
2022-10-14T10:11:39.978Z,73.76
2022-10-14T10:16:43.286Z,70.51
2022-10-14T10:21:48.794Z,70.62
2022-10-14T10:26:52.477Z,68.69
2022-10-14T10:32:06.880Z,69.82
2022-10-14T10:43:43.489Z,67.66
2022-10-14T10:49:08.814Z,70.04
2022-10-14T10:54:27.331Z,68.86
2022-10-14T10:59:59.810Z,68.11
2022-10-14T11:05:23.719Z,70.59
2022-10-14T11:11:08.366Z,68.06
2022-10-14T11:16:30.001Z,66.64
2022-10-14T11:21:44.749Z,65.34
2022-10-14T11:27:09.427Z,64.58
2022-10-14T11:32:33.983Z,68.54
2022-10-14T11:37:58.606Z,65.12
2022-10-14T11:43:13.933Z,63.63
2022-10-14T11:48:50.867Z,65.35
2022-10-14T11:54:08.585Z,65.75
2022-10-14T11:59:40.629Z,67.40
2022-10-14T12:04:48.373Z,64.48
2022-10-14T12:09:59.080Z,64.49
2022-10-14T12:15:08.056Z,62.09
2022-10-14T12:20:49.637Z,66.21
2022-10-14T12:26:20.053Z,64.19
2022-10-14T12:31:28.150Z,64.60
2022-10-14T12:36:32.368Z,60.31
2022-10-14T12:41:41.308Z,60.71
2022-10-14T12:46:49.984Z,62.16
2022-10-14T12:51:55.644Z,63.18
2022-10-14T12:57:26.277Z,63.25
2022-10-14T13:02:48.810Z,62.00
2022-10-14T13:08:17.247Z,61.51
2022-10-14T13:13:38.695Z,62.70
2022-10-14T13:18:44.982Z,63.74
2022-10-14T13:23:50.512Z,63.97
2022-10-14T13:29:03.066Z,62.67
2022-10-14T13:34:44.106Z,62.41
2022-10-14T13:39:47.474Z,61.53
2022-10-14T13:45:01.867Z,61.36
2022-10-14T13:50:05.783Z,62.42
2022-10-14T13:55:21.290Z,62.19
2022-10-14T14:00:42.049Z,64.02
2022-10-14T14:05:47.911Z,63.81
2022-10-14T14:11:15.691Z,63.78
2022-10-14T14:16:22.952Z,60.68
2022-10-14T14:21:27.931Z,61.49
2022-10-14T14:26:38.866Z,59.85
2022-10-14T14:37:34.290Z,61.06
2022-10-14T14:42:37.322Z,61.58
2022-10-14T14:47:42.182Z,63.24
2022-10-14T14:52:48.200Z,62.36
2022-10-14T14:57:59.529Z,61.24
2022-10-14T15:03:04.042Z,62.00
2022-10-14T15:08:25.746Z,62.26
2022-10-14T15:13:43.634Z,61.80
2022-10-14T15:19:02.377Z,61.95
2022-10-14T15:24:16.379Z,62.17
2022-10-14T15:29:28.087Z,62.85
2022-10-14T15:34:31.701Z,63.25
2022-10-14T15:39:35.614Z,63.82
2022-10-14T15:44:39.083Z,64.28
2022-10-14T15:49:46.688Z,64.90
2022-10-14T15:54:53.873Z,65.52
2022-10-14T15:59:59.353Z,66.03
2022-10-14T16:05:19.414Z,66.73
2022-10-14T16:10:34.815Z,67.99
2022-10-14T16:15:56.302Z,69.06
2022-10-14T16:21:03.052Z,69.30
2022-10-14T16:26:09.191Z,70.36
2022-10-14T16:31:14.750Z,71.74
2022-10-14T16:36:32.116Z,72.35
2022-10-14T16:41:36.730Z,73.31
2022-10-14T16:47:24.381Z,74.18
2022-10-14T16:53:02.252Z,75.11
2022-10-14T16:58:25.392Z,75.00
2022-10-14T17:03:31.819Z,75.33
2022-10-14T17:08:41.386Z,75.92
2022-10-14T17:13:54.072Z,76.95
2022-10-14T17:19:00.953Z,77.36
2022-10-14T17:24:05.407Z,77.93
2022-10-14T17:29:15.634Z,79.39
2022-10-14T17:34:35.090Z,78.30
2022-10-14T17:39:42.292Z,79.11
2022-10-14T17:44:46.625Z,81.21
2022-10-14T17:49:51.028Z,82.22
2022-10-14T17:55:01.429Z,82.65
2022-10-14T18:00:17.752Z,83.34
2022-10-14T18:05:21.119Z,85.02
2022-10-14T18:10:26.597Z,85.37
2022-10-14T18:15:31.496Z,84.68
2022-10-14T18:20:41.483Z,83.91
2022-10-14T18:25:45.801Z,82.85
2022-10-14T18:30:49.234Z,80.90
2022-10-14T18:36:01.330Z,82.00
2022-10-14T18:41:10.746Z,82.72
2022-10-14T18:46:21.827Z,83.97
2022-10-14T18:51:28.469Z,84.29
2022-10-14T18:56:37.604Z,84.15
2022-10-14T19:01:44.363Z,84.35
2022-10-14T19:06:50.762Z,84.38
2022-10-14T19:12:03.420Z,85.16
2022-10-14T19:17:09.960Z,85.69
2022-10-14T19:22:17.858Z,85.74
2022-10-14T19:27:21.962Z,86.35
2022-10-14T19:32:27.252Z,87.10
2022-10-14T19:37:45.572Z,87.39
2022-10-14T19:42:49.921Z,87.48
2022-10-14T19:47:56.972Z,87.73
2022-10-14T19:53:07.174Z,88.08
2022-10-14T19:58:27.995Z,88.39
2022-10-14T20:03:51.718Z,88.37
2022-10-14T20:09:08.328Z,88.32
2022-10-14T20:14:16.530Z,88.39
2022-10-14T20:19:22.160Z,89.58
2022-10-14T20:24:26.299Z,89.89
2022-10-14T20:29:36.138Z,89.95
2022-10-14T20:34:42.212Z,89.32
2022-10-14T20:39:49.977Z,89.63
2022-10-14T20:44:54.238Z,89.31
2022-10-14T20:50:01.300Z,89.13
2022-10-14T20:55:07.696Z,87.83
2022-10-14T21:00:21.862Z,88.30
2022-10-14T21:05:31.558Z,87.81
2022-10-14T21:10:40.939Z,87.54
2022-10-14T21:15:56.031Z,85.97
2022-10-14T21:21:05.398Z,83.44
2022-10-14T21:26:14.096Z,84.42
2022-10-14T21:31:21.125Z,82.90
2022-10-14T21:36:25.514Z,84.05
2022-10-14T21:41:30.828Z,86.20
2022-10-14T21:46:45.180Z,87.31
2022-10-14T21:52:00.465Z,87.56
2022-10-14T21:57:15.407Z,89.78
2022-10-14T22:02:19.505Z,89.97
2022-10-14T22:07:25.574Z,90.29
2022-10-14T22:12:31.537Z,90.75
2022-10-14T22:17:36.731Z,91.37
2022-10-14T22:22:47.172Z,91.34
2022-10-14T22:27:55.631Z,91.51
2022-10-14T22:33:03.225Z,91.95
2022-10-14T22:38:35.772Z,92.41
2022-10-14T22:43:54.296Z,92.52
2022-10-14T22:49:04.191Z,92.59
2022-10-14T22:54:18.066Z,92.64
2022-10-14T22:59:25.933Z,92.78
2022-10-14T23:04:32.533Z,92.84
2022-10-14T23:09:36.573Z,92.75
2022-10-14T23:14:40.482Z,92.81
2022-10-14T23:19:44.295Z,92.92
2022-10-14T23:24:48.171Z,92.89
2022-10-14T23:29:53.285Z,92.80
2022-10-14T23:34:57.414Z,92.71
2022-10-14T23:40:02.013Z,92.71
2022-10-14T23:45:06.023Z,92.81
2022-10-14T23:50:09.394Z,92.90
2022-10-14T23:55:13.476Z,93.04
